Time;durP1;ratioP1;P1;durP2;ratioP2;P2;SDS_P1;SDS_P2;PMS_P1;PMS_P2;Temp;Humidity;BMP_temperature;BMP_pressure;BME280_temperature;BME280_humidity;BME280_pressure;Samples;Min_cycle;Max_cycle;Signal;HPM_P1;HPM_P2
2023/07/17 00:02:11;;;;;;;18.75;11.93;;;;;;;16.34;98.34;101420.75;5052215;28;20049;-72
2023/07/17 00:04:36;;;;;;;19.45;12.35;;;;;;;16.30;99.64;101425.38;5052071;28;20122;-72
2023/07/17 00:07:02;;;;;;;19.20;11.38;;;;;;;16.17;99.76;101432.78;5052046;28;20024;-72
2023/07/17 00:09:27;;;;;;;18.35;11.93;;;;;;;16.15;99.65;101429.50;5052139;28;20037;-72
2023/07/17 00:11:53;;;;;;;19.25;11.55;;;;;;;16.11;100.00;101430.47;5051893;28;20029;-72
2023/07/17 00:14:18;;;;;;;18.80;11.52;;;;;;;16.11;100.00;101427.69;5051984;28;20444;-72
2023/07/17 00:16:43;;;;;;;19.65;11.82;;;;;;;16.05;100.00;101422.28;5051855;28;20029;-72
2023/07/17 00:19:09;;;;;;;20.15;12.00;;;;;;;16.00;100.00;101422.44;5051853;28;20028;-72
2023/07/17 00:21:34;;;;;;;20.25;12.30;;;;;;;16.00;100.00;101424.44;5051306;28;20124;-72
2023/07/17 00:23:59;;;;;;;19.05;12.45;;;;;;;15.99;100.00;101428.38;5051812;28;20110;-72
2023/07/17 00:26:25;;;;;;;18.67;12.10;;;;;;;16.01;99.96;101428.88;5051523;28;20127;-72
2023/07/17 00:28:50;;;;;;;19.17;12.18;;;;;;;16.00;100.00;101424.44;5051661;28;20032;-71
2023/07/17 00:31:15;;;;;;;18.63;11.85;;;;;;;16.01;100.00;101434.44;5051590;28;20029;-72
2023/07/17 00:33:40;;;;;;;18.80;11.93;;;;;;;15.99;100.00;101433.94;5051522;28;20028;-72
2023/07/17 00:36:06;;;;;;;19.52;12.10;;;;;;;16.00;99.73;101416.84;5051505;28;20061;-72
2023/07/17 00:38:31;;;;;;;18.65;12.02;;;;;;;16.04;99.96;101423.44;5051560;28;20475;-72
2023/07/17 00:40:56;;;;;;;19.38;11.95;;;;;;;16.05;100.00;101421.47;5051744;28;20506;-72
2023/07/17 00:43:22;;;;;;;19.15;11.98;;;;;;;16.05;100.00;101427.88;5051728;28;20534;-72
2023/07/17 00:45:47;;;;;;;19.70;12.00;;;;;;;16.05;100.00;101424.25;5050500;28;20024;-72
2023/07/17 00:48:14;;;;;;;18.55;12.02;;;;;;;16.04;100.00;101440.19;5050231;28;20025;-72
2023/07/17 00:50:39;;;;;;;18.05;11.90;;;;;;;16.01;99.92;101440.03;5050287;28;20036;-73
2023/07/17 00:53:07;;;;;;;20.83;12.73;;;;;;;16.00;99.93;101447.56;5051595;28;20032;-73
2023/07/17 00:55:34;;;;;;;18.88;12.45;;;;;;;15.92;100.00;101433.63;5051654;28;20021;-72
2023/07/17 00:58:01;;;;;;;21.23;12.68;;;;;;;15.90;100.00;101445.09;5051679;28;20032;-73
2023/07/17 01:00:26;;;;;;;19.85;13.18;;;;;;;15.79;100.00;101441.78;5050334;28;20032;-73
2023/07/17 01:02:52;;;;;;;20.00;12.48;;;;;;;15.78;100.00;101444.88;5051265;28;20025;-73
2023/07/17 01:05:18;;;;;;;20.17;13.10;;;;;;;15.77;100.00;101446.06;5051543;28;20025;-73
2023/07/17 01:07:43;;;;;;;18.90;12.52;;;;;;;15.70;100.00;101452.94;5051202;28;20481;-72
2023/07/17 01:10:09;;;;;;;19.20;12.82;;;;;;;15.64;100.00;101451.44;5051199;28;20025;-73
2023/07/17 01:12:35;;;;;;;21.08;12.50;;;;;;;15.60;100.00;101447.66;5051045;28;20473;-73
2023/07/17 01:15:02;;;;;;;19.55;13.10;;;;;;;15.54;100.00;101451.75;5051339;28;20033;-73
2023/07/17 01:17:27;;;;;;;20.45;12.40;;;;;;;15.53;100.00;101450.94;5051022;28;20124;-72
2023/07/17 01:19:53;;;;;;;19.88;12.75;;;;;;;15.53;100.00;101450.13;5051046;28;20116;-73
2023/07/17 01:22:23;;;;;;;19.40;12.73;;;;;;;15.50;100.00;101454.38;5051102;28;20028;-72
2023/07/17 01:24:48;;;;;;;20.75;13.43;;;;;;;15.48;100.00;101453.06;5051254;28;20025;-73
2023/07/17 01:27:15;;;;;;;20.55;13.35;;;;;;;15.42;100.00;101461.56;5050827;28;20099;-72
2023/07/17 01:29:40;;;;;;;20.02;12.80;;;;;;;15.34;100.00;101450.41;5050931;28;20104;-73
2023/07/17 01:32:06;;;;;;;19.80;13.50;;;;;;;15.31;100.00;101463.00;5052462;28;20445;-73
2023/07/17 01:34:31;;;;;;;19.17;13.27;;;;;;;15.27;100.00;101462.84;5054964;28;20040;-72
2023/07/17 01:36:57;;;;;;;20.70;12.90;;;;;;;15.28;100.00;101470.06;5054851;28;20076;-72
2023/07/17 01:39:24;;;;;;;21.15;12.60;;;;;;;15.23;100.00;101463.81;5054703;28;20480;-72
2023/07/17 01:41:50;;;;;;;21.08;12.82;;;;;;;15.15;100.00;101465.44;5054905;28;20116;-73
2023/07/17 01:44:15;;;;;;;20.10;13.30;;;;;;;15.15;100.00;101464.59;5054637;28;20108;-72
2023/07/17 01:46:40;;;;;;;21.77;13.70;;;;;;;15.14;100.00;101461.00;5054438;28;20041;-72
2023/07/17 01:49:07;;;;;;;19.55;12.57;;;;;;;15.10;100.00;101471.16;5054385;28;20029;-73
2023/07/17 01:51:32;;;;;;;19.10;12.68;;;;;;;15.11;100.00;101470.00;5054500;28;20040;-72
2023/07/17 01:53:57;;;;;;;20.52;13.05;;;;;;;15.08;100.00;101471.47;5054221;28;20055;-72
2023/07/17 01:56:23;;;;;;;20.75;13.48;;;;;;;15.04;100.00;101461.28;5054336;28;20025;-72
2023/07/17 01:58:48;;;;;;;21.90;12.93;;;;;;;14.98;100.00;101458.63;5054231;28;20167;-72
2023/07/17 02:01:13;;;;;;;19.33;13.70;;;;;;;14.95;100.00;101459.31;5054104;28;20821;-73
2023/07/17 02:03:39;;;;;;;19.80;13.30;;;;;;;14.94;100.00;101457.66;5054047;28;20094;-72
2023/07/17 02:06:06;;;;;;;21.33;13.50;;;;;;;14.95;100.00;101452.88;5054101;28;20103;-73
2023/07/17 02:08:31;;;;;;;19.70;13.32;;;;;;;14.94;100.00;101457.66;5054015;28;20049;-72
2023/07/17 02:10:56;;;;;;;20.58;12.95;;;;;;;14.90;100.00;101456.63;5054114;28;20129;-72
2023/07/17 02:13:22;;;;;;;19.83;12.98;;;;;;;14.91;100.00;101463.06;5054051;28;20118;-72
2023/07/17 02:15:47;;;;;;;21.77;13.10;;;;;;;14.86;100.00;101461.22;5053917;28;20039;-72
2023/07/17 02:18:12;;;;;;;19.95;13.25;;;;;;;14.84;100.00;101468.22;5053931;28;20049;-72
2023/07/17 02:20:38;;;;;;;20.88;13.13;;;;;;;14.80;100.00;101466.09;5053786;28;20092;-73
2023/07/17 02:23:03;;;;;;;22.17;13.32;;;;;;;14.76;100.00;101465.09;5053864;28;20088;-73
2023/07/17 02:25:28;;;;;;;20.52;13.23;;;;;;;14.75;100.00;101466.22;5052394;28;20234;-72
2023/07/17 02:27:54;;;;;;;19.15;13.00;;;;;;;14.70;100.00;101462.75;5053560;28;20053;-72
2023/07/17 02:30:19;;;;;;;20.80;14.43;;;;;;;14.73;100.00;101473.25;5053682;28;20465;-73
2023/07/17 02:32:44;;;;;;;20.05;13.52;;;;;;;14.70;100.00;101477.53;5053438;28;20025;-73
2023/07/17 02:35:10;;;;;;;22.48;13.93;;;;;;;14.70;100.00;101473.91;5053613;28;20025;-72
2023/07/17 02:37:35;;;;;;;21.20;13.88;;;;;;;14.69;100.00;101475.88;5053459;28;20495;-72
2023/07/17 02:40:01;;;;;;;21.13;13.75;;;;;;;14.68;100.00;101477.00;5053519;28;20048;-72
2023/07/17 02:42:26;;;;;;;20.42;13.30;;;;;;;14.65;100.00;101485.97;5053430;28;20033;-72
2023/07/17 02:44:51;;;;;;;19.50;12.80;;;;;;;14.59;100.00;101490.88;5051403;28;20033;-73
2023/07/17 02:47:17;;;;;;;18.70;12.82;;;;;;;14.56;100.00;101488.72;5053431;28;20036;-72
2023/07/17 02:49:43;;;;;;;21.33;13.52;;;;;;;14.50;100.00;101487.19;5053289;28;20021;-72
2023/07/17 02:52:09;;;;;;;20.55;13.20;;;;;;;14.53;100.00;101491.31;5053033;28;20049;-72
2023/07/17 02:54:39;;;;;;;20.08;13.00;;;;;;;14.51;100.00;101498.00;5051780;28;20443;-72
2023/07/17 02:57:05;;;;;;;21.58;13.27;;;;;;;14.46;100.00;101484.19;5053200;28;20040;-72
2023/07/17 02:59:30;;;;;;;19.65;13.70;;;;;;;14.40;100.00;101491.03;5053000;28;20052;-73
2023/07/17 03:01:56;;;;;;;19.13;13.00;;;;;;;14.30;100.00;101486.56;5053114;28;20401;-72
2023/07/17 03:04:21;;;;;;;22.67;13.07;;;;;;;14.27;100.00;101492.75;5053053;28;20389;-73
2023/07/17 03:06:48;;;;;;;22.73;13.50;;;;;;;14.21;100.00;101488.47;5053071;28;20024;-73
2023/07/17 03:09:13;;;;;;;22.67;13.27;;;;;;;14.17;100.00;101496.59;5053023;28;20511;-73
2023/07/17 03:11:38;;;;;;;21.13;13.32;;;;;;;14.15;100.00;101507.25;5052801;28;20029;-72
2023/07/17 03:14:04;;;;;;;21.40;13.75;;;;;;;14.11;100.00;101505.41;5052527;28;20116;-73
2023/07/17 03:16:29;;;;;;;20.80;13.40;;;;;;;14.11;100.00;101503.44;5052722;28;20029;-72
2023/07/17 03:18:54;;;;;;;20.88;14.02;;;;;;;14.11;100.00;101506.22;5052647;28;20449;-73
2023/07/17 03:21:22;;;;;;;20.30;13.68;;;;;;;14.04;100.00;101506.63;5051267;28;20025;-73
2023/07/17 03:23:48;;;;;;;21.05;13.73;;;;;;;14.04;100.00;101511.38;5052769;28;20025;-73
2023/07/17 03:26:13;;;;;;;21.73;13.15;;;;;;;14.02;100.00;101513.66;5052259;28;20021;-73
2023/07/17 03:28:38;;;;;;;21.20;13.00;;;;;;;14.01;100.00;101509.22;5052374;28;20025;-73
2023/07/17 03:31:04;;;;;;;21.08;12.82;;;;;;;14.00;100.00;101516.75;5052376;28;20171;-73
2023/07/17 03:33:32;;;;;;;20.67;13.40;;;;;;;13.99;100.00;101515.13;5052785;28;20119;-73
2023/07/17 03:35:58;;;;;;;22.80;13.85;;;;;;;13.97;100.00;101516.56;5052496;28;20504;-72
2023/07/17 03:38:23;;;;;;;21.80;13.98;;;;;;;13.93;100.00;101512.75;5052233;28;20049;-72
2023/07/17 03:40:48;;;;;;;20.85;13.48;;;;;;;13.95;100.00;101514.09;5051999;28;20500;-73
2023/07/17 03:43:13;;;;;;;22.42;14.00;;;;;;;13.92;100.00;101505.53;5052065;28;20112;-72
2023/07/17 03:45:39;;;;;;;22.23;13.60;;;;;;;13.91;100.00;101512.25;5050642;28;20021;-72
2023/07/17 03:48:04;;;;;;;20.85;13.43;;;;;;;13.88;100.00;101505.34;5052227;28;20036;-72
2023/07/17 03:50:30;;;;;;;19.75;13.48;;;;;;;13.94;100.00;101512.44;5052047;28;20123;-73
2023/07/17 03:52:55;;;;;;;22.20;13.52;;;;;;;13.91;100.00;101503.91;5051982;28;20032;-72
2023/07/17 03:55:21;;;;;;;20.80;12.52;;;;;;;13.83;100.00;101513.81;5050988;28;20070;-73
2023/07/17 03:57:46;;;;;;;21.20;12.35;;;;;;;13.82;100.00;101515.75;5051941;28;20108;-74
2023/07/17 04:00:15;;;;;;;20.73;12.05;;;;;;;13.82;100.00;101518.53;5051964;28;20515;-72
2023/07/17 04:02:44;;;;;;;21.63;12.90;;;;;;;13.82;100.00;101523.28;5051905;28;20025;-73
2023/07/17 04:05:10;;;;;;;20.40;12.57;;;;;;;13.80;100.00;101517.22;5051804;28;20108;-73
2023/07/17 04:07:35;;;;;;;18.75;11.43;;;;;;;13.79;100.00;101523.91;5051933;28;20055;-73
2023/07/17 04:10:01;;;;;;;21.80;12.20;;;;;;;13.79;100.00;101523.91;5051838;28;20033;-72
2023/07/17 04:12:26;;;;;;;21.02;12.00;;;;;;;13.74;100.00;101522.06;5051597;28;20025;-73
2023/07/17 04:14:52;;;;;;;21.52;11.77;;;;;;;13.77;100.00;101531.72;5050190;28;20435;-72
2023/07/17 04:17:17;;;;;;;22.38;12.05;;;;;;;13.75;100.00;101529.28;5051658;28;20116;-73
2023/07/17 04:19:43;;;;;;;22.30;12.52;;;;;;;13.80;100.00;101531.13;5051592;28;20063;-72
2023/07/17 04:22:08;;;;;;;20.98;11.98;;;;;;;13.86;100.00;101539.03;5051612;28;20075;-72
2023/07/17 04:24:34;;;;;;;21.25;11.82;;;;;;;13.92;100.00;101539.75;5050188;28;20036;-72
2023/07/17 04:26:59;;;;;;;22.52;11.65;;;;;;;13.96;100.00;101537.97;5051368;28;20044;-73
2023/07/17 04:29:25;;;;;;;20.08;11.93;;;;;;;13.98;100.00;101538.50;5051484;28;20021;-73
2023/07/17 04:31:50;;;;;;;21.00;11.40;;;;;;;13.98;100.00;101546.03;5051235;28;20108;-72
2023/07/17 04:34:16;;;;;;;20.73;11.80;;;;;;;14.01;100.00;101546.22;5051423;28;20035;-73
2023/07/17 04:36:41;;;;;;;20.65;12.20;;;;;;;14.00;100.00;101549.31;5051277;28;20029;-73
2023/07/17 04:39:06;;;;;;;19.38;12.20;;;;;;;14.02;100.00;101547.03;5051414;28;20036;-73
2023/07/17 04:41:32;;;;;;;20.27;12.25;;;;;;;14.01;100.00;101549.00;5050014;28;20033;-73
2023/07/17 04:43:57;;;;;;;21.73;12.25;;;;;;;14.03;100.00;101554.25;5049855;28;20114;-73
2023/07/17 04:46:24;;;;;;;18.95;11.80;;;;;;;14.07;100.00;101558.06;5051158;28;20025;-72
2023/07/17 04:48:49;;;;;;;21.75;12.40;;;;;;;14.08;100.00;101556.09;5051230;28;20094;-73
2023/07/17 04:51:14;;;;;;;20.05;11.82;;;;;;;14.10;100.00;101570.53;5051214;28;20655;-72
2023/07/17 04:53:40;;;;;;;22.50;12.50;;;;;;;14.13;100.00;101567.09;5051322;28;20192;-72
2023/07/17 04:56:06;;;;;;;21.35;11.77;;;;;;;14.16;100.00;101567.31;5051118;28;20021;-72
2023/07/17 04:58:32;;;;;;;21.40;12.48;;;;;;;14.22;100.00;101575.53;5051252;28;20041;-73
2023/07/17 05:00:59;;;;;;;21.27;12.43;;;;;;;14.27;100.00;101570.69;5051329;28;20028;-73
2023/07/17 05:03:24;;;;;;;21.25;12.20;;;;;;;14.31;100.00;101568.91;5051082;28;20048;-73
2023/07/17 05:05:53;;;;;;;21.65;12.70;;;;;;;14.33;100.00;101574.97;5051146;28;20766;-73
2023/07/17 05:08:19;;;;;;;23.13;12.70;;;;;;;14.37;100.00;101568.81;5053473;28;20048;-72
2023/07/17 05:11:00;;;;;;;21.92;12.77;;;;;;;14.44;100.00;101577.53;5054974;28;20381;-72
2023/07/17 05:13:26;;;;;;;23.13;12.48;;;;;;;14.51;100.00;101577.91;5055162;28;20485;-72
2023/07/17 05:15:52;;;;;;;21.48;11.90;;;;;;;14.52;100.00;101571.22;5055014;28;20049;-73
2023/07/17 05:18:18;;;;;;;23.88;13.13;;;;;;;14.55;100.00;101578.13;5053558;28;20056;-73
2023/07/17 05:20:48;;;;;;;20.48;12.18;;;;;;;14.56;100.00;101579.75;5054888;28;20524;-72
2023/07/17 05:23:14;;;;;;;23.77;13.43;;;;;;;14.56;100.00;101579.75;5054852;28;20029;-72
2023/07/17 05:25:50;;;;;;;23.13;13.70;;;;;;;14.59;100.00;101582.75;5054767;28;20508;-73
2023/07/17 05:28:15;;;;;;;22.33;13.20;;;;;;;14.61;100.00;101579.63;5054637;28;20052;-73
2023/07/17 05:30:40;;;;;;;21.70;12.68;;;;;;;14.69;100.00;101592.84;5054669;28;20025;-72
2023/07/17 05:33:06;;;;;;;22.65;12.60;;;;;;;14.74;100.00;101589.09;5054548;28;20025;-72
2023/07/17 05:35:31;;;;;;;22.30;13.23;;;;;;;14.82;100.00;101605.88;5054533;28;20029;-73
2023/07/17 05:37:56;;;;;;;23.40;13.00;;;;;;;14.88;100.00;101598.19;5054410;28;20031;-72
2023/07/17 05:40:22;;;;;;;24.77;12.93;;;;;;;15.01;100.00;101595.66;5054346;28;20032;-72
2023/07/17 05:42:47;;;;;;;20.77;12.93;;;;;;;15.06;100.00;101603.91;5054202;28;20067;-73
2023/07/17 05:45:12;;;;;;;24.25;12.50;;;;;;;15.10;100.00;101605.75;5054253;28;20036;-73
2023/07/17 05:47:38;;;;;;;21.38;12.18;;;;;;;15.15;100.00;101618.72;5054140;28;20107;-72
2023/07/17 05:50:04;;;;;;;23.92;13.07;;;;;;;15.19;100.00;101610.53;5054063;28;20027;-72
2023/07/17 05:52:30;;;;;;;22.85;12.32;;;;;;;15.24;100.00;101614.03;5054063;28;20029;-73
2023/07/17 05:54:55;;;;;;;23.02;12.65;;;;;;;15.31;99.24;101610.75;5054224;28;20353;-73
2023/07/17 05:57:21;;;;;;;21.83;12.23;;;;;;;15.36;99.19;101609.78;5053984;28;20079;-73
2023/07/17 05:59:46;;;;;;;23.05;13.20;;;;;;;15.41;99.15;101621.63;5053959;28;20053;-73
2023/07/17 06:02:11;;;;;;;22.27;12.80;;;;;;;15.49;98.69;101620.03;5053923;28;20039;-73
2023/07/17 06:04:37;;;;;;;21.77;12.55;;;;;;;15.53;97.95;101625.78;5052545;28;20603;-73
2023/07/17 06:07:03;;;;;;;23.83;12.32;;;;;;;15.58;97.40;101609.75;5053654;28;20380;-72
2023/07/17 06:09:29;;;;;;;21.90;12.43;;;;;;;15.60;97.35;101613.03;5053960;28;20041;-73
2023/07/17 06:11:54;;;;;;;21.85;12.45;;;;;;;15.67;96.03;101618.16;5053796;28;20120;-73
2023/07/17 06:14:20;;;;;;;23.00;13.30;;;;;;;15.66;95.47;101621.25;5053637;28;20135;-74
2023/07/17 06:16:45;;;;;;;23.50;13.20;;;;;;;15.66;96.74;101615.66;5053648;28;20029;-72
2023/07/17 06:19:10;;;;;;;22.20;12.80;;;;;;;15.75;96.77;101619.31;5052638;28;20117;-72
2023/07/17 06:21:35;;;;;;;23.77;13.38;;;;;;;15.80;95.99;101621.97;5053490;28;20120;-71
2023/07/17 06:24:01;;;;;;;24.23;13.13;;;;;;;15.85;94.79;101624.63;5053774;28;20043;-72
2023/07/17 06:26:26;;;;;;;22.35;12.50;;;;;;;15.90;94.99;101635.66;5053446;28;20080;-75
2023/07/17 06:28:51;;;;;;;21.80;12.32;;;;;;;15.96;94.17;101638.28;5053608;28;20104;-73
2023/07/17 06:31:17;;;;;;;20.77;12.27;;;;;;;15.99;94.08;101646.84;5053574;28;20029;-73
2023/07/17 06:33:42;;;;;;;22.40;12.23;;;;;;;16.04;92.92;101651.44;5053401;28;20025;-71
2023/07/17 06:36:07;;;;;;;22.63;13.02;;;;;;;16.11;92.66;101637.03;5053398;28;20070;-71
2023/07/17 06:38:33;;;;;;;21.00;12.90;;;;;;;16.20;93.30;101640.66;5053400;28;20109;-72
2023/07/17 06:40:58;;;;;;;22.23;13.40;;;;;;;16.25;92.08;101650.84;5053316;28;20024;-75
2023/07/17 06:43:23;;;;;;;21.92;12.75;;;;;;;16.30;91.96;101654.31;5053252;28;20045;-71
2023/07/17 06:45:49;;;;;;;21.98;12.60;;;;;;;16.38;91.45;101656.28;5053229;28;20025;-74
2023/07/17 06:48:15;;;;;;;22.70;12.15;;;;;;;16.47;91.22;101659.09;5053231;28;20432;-74
2023/07/17 06:50:40;;;;;;;25.33;13.38;;;;;;;16.64;91.15;101657.47;5053023;28;20024;-73
2023/07/17 06:53:06;;;;;;;23.33;12.30;;;;;;;16.72;89.30;101661.44;5051784;28;20032;-74
2023/07/17 06:55:32;;;;;;;23.85;13.27;;;;;;;16.76;89.64;101665.19;5052955;28;20076;-72
2023/07/17 06:57:57;;;;;;;24.27;12.90;;;;;;;16.82;88.91;101664.69;5053028;28;20057;-71
2023/07/17 07:00:22;;;;;;;22.52;12.02;;;;;;;17.05;88.61;101675.72;5052934;28;20392;-71
2023/07/17 07:02:48;;;;;;;24.48;12.63;;;;;;;17.14;87.28;101670.13;5052938;28;20397;-72
2023/07/17 07:05:13;;;;;;;21.23;12.95;;;;;;;17.15;87.69;101672.56;5052883;28;20393;-73
2023/07/17 07:07:38;;;;;;;22.45;12.75;;;;;;;17.18;86.40;101673.06;5052790;28;20419;-72
2023/07/17 07:10:04;;;;;;;22.67;12.93;;;;;;;17.18;86.21;101681.47;5052833;28;20029;-72
2023/07/17 07:12:30;;;;;;;21.38;12.52;;;;;;;17.10;85.98;101680.31;5052608;28;20020;-72
2023/07/17 07:14:55;;;;;;;21.13;13.27;;;;;;;17.05;86.79;101680.50;5052716;28;20439;-71
2023/07/17 07:17:20;;;;;;;25.35;13.88;;;;;;;17.11;86.15;101685.59;5052727;28;20254;-72
2023/07/17 07:19:46;;;;;;;23.27;12.90;;;;;;;17.24;85.05;101683.75;5052613;28;20036;-72
2023/07/17 07:22:11;;;;;;;24.30;13.40;;;;;;;17.35;84.62;101697.41;5052522;28;20091;-73
2023/07/17 07:24:38;;;;;;;22.08;13.00;;;;;;;17.52;84.78;101694.56;5052587;28;20454;-72
2023/07/17 07:27:04;;;;;;;21.17;12.88;;;;;;;17.62;82.60;101685.81;5052433;28;20497;-71
2023/07/17 07:29:29;;;;;;;23.38;13.48;;;;;;;17.66;81.64;101693.53;5052216;28;20025;-72
2023/07/17 07:31:54;;;;;;;21.98;12.73;;;;;;;17.65;81.24;101709.50;5052467;28;20033;-71
2023/07/17 07:34:21;;;;;;;23.50;12.93;;;;;;;17.64;81.06;101707.03;5052320;28;20515;-72
2023/07/17 07:36:46;;;;;;;22.48;13.23;;;;;;;17.68;81.26;101714.44;5050845;28;20071;-72
2023/07/17 07:39:12;;;;;;;23.35;12.80;;;;;;;17.72;80.90;101704.19;5052211;28;20082;-72
2023/07/17 07:41:37;;;;;;;21.60;12.77;;;;;;;17.76;80.58;101707.16;5050820;28;20031;-74
2023/07/17 07:44:02;;;;;;;21.52;12.75;;;;;;;17.75;80.00;101708.34;5052219;28;20021;-72
2023/07/17 07:46:28;;;;;;;20.92;12.95;;;;;;;17.83;80.85;101707.47;5050746;28;20501;-72
2023/07/17 07:48:53;;;;;;;22.55;12.23;;;;;;;17.87;79.03;101711.22;5052104;28;20392;-71
2023/07/17 07:51:19;;;;;;;22.48;12.35;;;;;;;17.90;78.06;101707.78;5051973;28;20037;-72
2023/07/17 07:53:44;;;;;;;21.50;12.45;;;;;;;18.09;78.40;101709.38;5051929;28;20020;-72
2023/07/17 07:56:09;;;;;;;20.63;11.88;;;;;;;18.22;76.77;101719.53;5052035;28;20025;-75
2023/07/17 07:58:35;;;;;;;20.75;12.43;;;;;;;18.36;76.29;101718.44;5052036;28;20039;-71
2023/07/17 08:01:00;;;;;;;20.98;12.07;;;;;;;18.48;75.20;101721.34;5051921;28;20029;-72
2023/07/17 08:03:26;;;;;;;20.58;12.15;;;;;;;18.45;75.00;101708.00;5051865;28;20044;-72
2023/07/17 08:05:52;;;;;;;20.92;12.48;;;;;;;18.38;74.32;101728.16;5051786;28;20037;-72
2023/07/17 08:08:17;;;;;;;20.67;12.52;;;;;;;18.41;75.12;101723.88;5051768;28;20067;-72
2023/07/17 08:10:42;;;;;;;22.25;12.20;;;;;;;18.51;74.30;101725.44;5051802;28;20160;-74
2023/07/17 08:13:08;;;;;;;20.35;11.85;;;;;;;18.49;74.10;101724.97;5050165;28;20021;-72
2023/07/17 08:15:33;;;;;;;21.95;12.20;;;;;;;18.46;73.37;101734.88;5051684;28;20036;-73
2023/07/17 08:17:58;;;;;;;21.13;13.07;;;;;;;18.51;73.91;101731.88;5051639;28;20032;-73
2023/07/17 08:20:24;;;;;;;20.20;11.75;;;;;;;18.53;74.28;101732.34;5051553;28;20060;-72
2023/07/17 08:22:54;;;;;;;23.10;13.00;;;;;;;18.58;73.50;101736.13;5051516;28;20431;-72
2023/07/17 08:25:20;;;;;;;20.83;12.35;;;;;;;18.71;73.04;101723.81;5051677;28;20028;-71
2023/07/17 08:27:45;;;;;;;20.48;12.30;;;;;;;18.86;72.85;101723.22;5051257;28;20049;-74
2023/07/17 08:30:11;;;;;;;25.23;12.07;;;;;;;18.80;72.11;101732.97;5051491;28;20117;-73
2023/07/17 08:32:36;;;;;;;19.98;11.50;;;;;;;18.79;70.58;101727.72;5051324;28;20579;-74
2023/07/17 08:35:03;;;;;;;22.88;11.82;;;;;;;18.83;71.11;101725.88;5051393;28;20071;-72
2023/07/17 08:37:28;;;;;;;19.63;11.35;;;;;;;18.97;71.32;101729.25;5051315;28;20033;-72
2023/07/17 08:39:53;;;;;;;20.58;11.07;;;;;;;19.00;70.92;101737.00;5051399;28;20555;-75
2023/07/17 08:42:18;;;;;;;19.80;11.30;;;;;;;18.96;69.97;101730.41;5050889;28;20037;-73
2023/07/17 08:44:45;;;;;;;19.67;10.35;;;;;;;19.21;70.53;101741.78;5051372;28;20025;-72
2023/07/17 08:47:11;;;;;;;20.27;11.55;;;;;;;19.45;69.17;101743.84;5051202;28;20021;-74
2023/07/17 08:49:38;;;;;;;18.70;11.10;;;;;;;19.64;67.70;101732.09;5051035;28;20053;-72
2023/07/17 08:52:06;;;;;;;20.90;12.13;;;;;;;19.69;66.11;101747.88;5051206;28;20075;-73
2023/07/17 08:54:31;;;;;;;19.95;11.70;;;;;;;19.66;63.88;101754.19;5051057;28;20437;-73
2023/07/17 08:57:03;;;;;;;19.75;11.50;;;;;;;19.63;64.79;101746.47;5051140;28;20473;-73
2023/07/17 08:59:30;;;;;;;20.20;11.25;;;;;;;19.67;63.46;101746.59;5049833;28;20052;-74
2023/07/17 09:01:55;;;;;;;21.50;11.70;;;;;;;19.79;63.56;101741.84;5050997;28;20056;-73
2023/07/17 09:04:21;;;;;;;20.48;11.77;;;;;;;20.01;64.77;101734.19;5051109;28;20453;-75
2023/07/17 09:06:46;;;;;;;19.35;11.40;;;;;;;20.21;64.08;101740.03;5049580;28;20116;-72
2023/07/17 09:09:12;;;;;;;18.92;10.70;;;;;;;20.42;63.27;101740.72;5050983;28;20360;-73
2023/07/17 09:11:37;;;;;;;20.33;11.82;;;;;;;20.38;61.36;101744.59;5050926;28;20033;-73
2023/07/17 09:14:03;;;;;;;19.92;11.27;;;;;;;20.42;62.26;101742.72;5050785;28;20025;-72
2023/07/17 09:16:29;;;;;;;20.90;10.68;;;;;;;20.42;61.60;101749.16;5050818;28;20037;-72
2023/07/17 09:18:54;;;;;;;19.73;11.40;;;;;;;20.49;62.34;101744.94;5050795;28;20652;-73
2023/07/17 09:21:22;;;;;;;21.23;11.30;;;;;;;20.63;63.24;101748.19;5050992;28;20067;-72
2023/07/17 09:23:50;;;;;;;19.60;11.88;;;;;;;20.76;64.32;101745.41;5050999;28;20346;-73
2023/07/17 09:26:17;;;;;;;20.88;11.05;;;;;;;20.73;61.18;101736.50;5050660;28;20036;-72
2023/07/17 09:28:55;;;;;;;19.38;10.98;;;;;;;20.88;60.75;101754.63;5050841;28;20078;-72
2023/07/17 09:31:27;;;;;;;20.08;10.80;;;;;;;21.00;60.65;101748.16;5050779;28;20101;-72
2023/07/17 09:33:54;;;;;;;20.00;10.10;;;;;;;20.91;59.01;101747.47;5051330;28;20123;-71
2023/07/17 09:36:21;;;;;;;20.70;10.60;;;;;;;20.86;58.05;101751.34;5051806;28;20024;-73
2023/07/17 09:38:54;;;;;;;18.70;10.20;;;;;;;20.83;58.84;101749.25;5051304;28;20027;-76
2023/07/17 09:41:23;;;;;;;20.48;11.00;;;;;;;20.92;59.26;101743.50;5050579;28;20556;-74
2023/07/17 09:44:06;;;;;;;21.23;11.15;;;;;;;21.07;58.51;101735.47;5051038;28;20556;-76
2023/07/17 09:46:37;;;;;;;18.30;10.13;;;;;;;20.98;56.41;101742.06;5049542;28;20029;-73
2023/07/17 09:49:04;;;;;;;19.83;11.23;;;;;;;21.18;58.71;101743.06;5051433;28;20528;-73
2023/07/17 09:51:30;;;;;;;18.00;11.02;;;;;;;21.39;55.24;101739.22;5050085;28;20059;-72
2023/07/17 09:53:58;;;;;;;20.58;11.60;;;;;;;21.58;55.61;101738.56;5054436;28;20021;-73
2023/07/17 09:56:27;;;;;;;21.00;11.50;;;;;;;21.74;55.50;101738.59;5054599;28;20052;-76
2023/07/17 09:58:55;;;;;;;19.15;10.13;;;;;;;21.54;54.21;101746.03;5054846;28;20055;-73
2023/07/17 10:01:23;;;;;;;19.38;10.10;;;;;;;21.37;54.30;101746.38;5054960;28;20052;-76
2023/07/17 10:03:50;;;;;;;17.30;9.43;;;;;;;21.34;53.87;101748.75;5054331;28;20062;-72
2023/07/17 10:06:20;;;;;;;19.40;9.70;;;;;;;21.22;54.02;101750.75;5054372;28;20028;-73
2023/07/17 10:08:55;;;;;;;18.10;10.50;;;;;;;21.24;55.97;101752.06;5054259;28;20171;-74
2023/07/17 10:11:21;;;;;;;19.33;9.93;;;;;;;21.43;54.01;101745.75;5054323;28;20036;-75
2023/07/17 10:13:48;;;;;;;17.00;9.07;;;;;;;21.48;53.80;101744.69;5054294;28;20068;-73
2023/07/17 10:16:17;;;;;;;16.52;8.88;;;;;;;21.53;52.13;101747.25;5054473;28;20033;-76
2023/07/17 10:18:50;;;;;;;17.05;9.18;;;;;;;21.71;53.58;101741.31;5053923;28;20135;-74
2023/07/17 10:21:17;;;;;;;18.42;9.98;;;;;;;21.89;53.53;101736.13;5054031;28;20107;-73
2023/07/17 10:23:45;;;;;;;18.30;9.63;;;;;;;22.01;52.70;101743.69;5054201;28;20063;-73
2023/07/17 10:26:12;;;;;;;17.23;9.48;;;;;;;22.02;52.06;101737.69;5053824;28;20128;-73
2023/07/17 10:28:38;;;;;;;17.98;9.70;;;;;;;22.11;53.19;101743.13;5053843;28;20055;-72
2023/07/17 10:31:23;;;;;;;16.92;9.20;;;;;;;22.27;53.14;101748.75;5053631;28;20035;-75
2023/07/17 10:33:53;;;;;;;17.33;9.65;;;;;;;22.30;52.07;101753.66;5053560;28;20033;-72
2023/07/17 10:36:35;;;;;;;18.02;9.27;;;;;;;22.25;52.02;101745.47;5053740;28;20025;-75
2023/07/17 10:39:04;;;;;;;17.83;8.93;;;;;;;22.16;52.07;101742.88;5053885;28;20037;-75
2023/07/17 10:41:29;;;;;;;18.00;9.20;;;;;;;22.09;51.94;101743.50;5053621;28;20035;-77
2023/07/17 10:44:06;;;;;;;15.98;8.93;;;;;;;22.16;53.77;101742.88;5053637;28;20119;-73
2023/07/17 10:46:33;;;;;;;17.02;9.38;;;;;;;22.28;52.34;101742.78;5053461;28;20086;-73
2023/07/17 10:49:09;;;;;;;17.95;9.38;;;;;;;22.45;51.39;101749.22;5052032;28;20025;-75
2023/07/17 10:51:37;;;;;;;15.52;8.38;;;;;;;22.25;49.62;101765.19;5053849;28;20033;-75
2023/07/17 10:54:03;;;;;;;18.92;9.20;;;;;;;22.04;50.84;101745.75;5053634;28;20036;-74
2023/07/17 10:56:32;;;;;;;17.40;9.30;;;;;;;22.02;49.90;101748.97;5053717;28;20041;-75
2023/07/17 10:58:58;;;;;;;17.00;8.88;;;;;;;22.07;50.16;101750.69;5053236;28;20060;-72
2023/07/17 11:01:24;;;;;;;19.70;9.60;;;;;;;22.03;50.82;101744.13;5053077;28;20033;-73
2023/07/17 11:03:49;;;;;;;16.95;8.93;;;;;;;22.07;49.68;101751.50;5052981;28;20032;-76